Time;durP1;ratioP1;P1;durP2;ratioP2;P2;SDS_P1;SDS_P2;PMS_P1;PMS_P2;Temp;Humidity;BMP_temperature;BMP_pressure;BME280_temperature;BME280_humidity;BME280_pressure;Samples;Min_cycle;Max_cycle;Signal;HPM_P1;HPM_P2
2021/05/24 00:00:37;;;;;;;8.45;5.57;;;18.30;61.20;;;;;;5043514;28;20504;-59
2021/05/24 00:03:02;;;;;;;8.55;5.70;;;18.30;61.30;;;;;;5048328;28;20042;-61
2021/05/24 00:05:29;;;;;;;6.65;5.57;;;18.20;61.30;;;;;;5029754;28;20480;-61
2021/05/24 00:07:55;;;;;;;9.77;6.68;;;18.20;61.50;;;;;;5044520;28;20028;-61
2021/05/24 00:10:23;;;;;;;10.80;6.93;;;18.10;61.50;;;;;;5045715;28;20045;-60
2021/05/24 00:12:50;;;;;;;8.80;6.70;;;18.10;61.60;;;;;;5063453;28;20059;-61
2021/05/24 00:15:23;;;;;;;8.98;6.30;;;18.10;61.70;;;;;;5047096;28;20020;-60
2021/05/24 00:17:49;;;;;;;11.00;7.13;;;18.10;61.80;;;;;;5062926;28;20024;-60
2021/05/24 00:20:15;;;;;;;10.25;6.70;;;18.00;61.90;;;;;;5044321;28;20024;-59
2021/05/24 00:22:41;;;;;;;9.65;6.38;;;18.00;62.00;;;;;;5044377;28;20119;-60
2021/05/24 00:25:07;;;;;;;7.85;6.07;;;18.00;62.00;;;;;;5063225;28;20107;-59
2021/05/24 00:27:33;;;;;;;13.10;7.55;;;18.00;62.10;;;;;;5063947;28;20083;-62
2021/05/24 00:29:58;;;;;;;9.45;7.03;;;17.90;62.20;;;;;;5029391;28;20029;-59
2021/05/24 00:32:24;;;;;;;10.32;7.20;;;17.90;62.40;;;;;;5046445;28;20052;-59
2021/05/24 00:34:49;;;;;;;10.05;7.38;;;17.80;62.40;;;;;;5064646;28;20107;-60
2021/05/24 00:37:15;;;;;;;10.80;7.30;;;17.80;62.50;;;;;;5044894;28;20017;-59
2021/05/24 00:39:41;;;;;;;11.38;7.78;;;17.70;62.50;;;;;;5063184;28;20265;-61
2021/05/24 00:42:06;;;;;;;10.77;7.20;;;17.70;62.70;;;;;;5044582;28;20028;-61
2021/05/24 00:44:32;;;;;;;13.18;7.63;;;17.70;62.70;;;;;;5066234;28;20235;-61
2021/05/24 00:46:57;;;;;;;12.00;8.38;;;17.60;62.90;;;;;;5062055;28;20036;-61
2021/05/24 00:49:26;;;;;;;12.00;7.93;;;17.60;62.90;;;;;;5064637;28;20047;-60
2021/05/24 00:51:54;;;;;;;11.77;7.72;;;17.60;63.10;;;;;;5044857;28;20025;-60
2021/05/24 00:54:20;;;;;;;11.35;7.65;;;17.60;63.10;;;;;;5045155;28;20055;-61
2021/05/24 00:56:45;;;;;;;10.57;7.38;;;17.50;63.20;;;;;;5043894;28;20485;-61
2021/05/24 00:59:11;;;;;;;10.65;7.10;;;17.50;63.30;;;;;;5046252;28;20064;-60
2021/05/24 01:01:36;;;;;;;12.07;7.50;;;17.50;63.40;;;;;;5044031;28;20393;-60
2021/05/24 01:04:02;;;;;;;9.90;6.53;;;17.50;63.40;;;;;;5063852;28;20040;-59
2021/05/24 01:06:28;;;;;;;11.20;6.88;;;17.50;63.50;;;;;;5045818;28;20025;-60
2021/05/24 01:08:53;;;;;;;9.60;6.72;;;17.40;63.60;;;;;;5043715;28;20039;-60
2021/05/24 01:11:22;;;;;;;9.93;6.53;;;17.40;63.90;;;;;;5044966;28;20033;-60
2021/05/24 01:13:48;;;;;;;12.70;6.50;;;17.30;63.70;;;;;;5045578;28;20374;-60
2021/05/24 01:16:13;;;;;;;9.93;6.45;;;17.30;63.70;;;;;;5062298;28;20589;-59
2021/05/24 01:18:39;;;;;;;9.13;6.03;;;17.30;63.90;;;;;;5062894;28;20479;-59
2021/05/24 01:21:11;;;;;;;11.38;5.60;;;17.20;63.90;;;;;;5044670;28;20118;-61
2021/05/24 01:23:44;;;;;;;9.35;5.65;;;17.20;64.00;;;;;;5044187;28;20274;-61
2021/05/24 01:26:10;;;;;;;8.05;5.35;;;17.20;64.10;;;;;;5063265;28;20055;-59
2021/05/24 01:28:36;;;;;;;8.70;5.28;;;17.20;64.30;;;;;;5045858;28;20296;-61
2021/05/24 01:31:03;;;;;;;7.35;5.57;;;17.10;64.30;;;;;;5064098;28;20171;-61
2021/05/24 01:33:28;;;;;;;6.15;4.53;;;17.10;64.40;;;;;;5045648;28;20028;-63
2021/05/24 01:35:54;;;;;;;8.35;5.20;;;17.00;64.50;;;;;;5046872;28;20036;-63
2021/05/24 01:38:19;;;;;;;8.23;5.43;;;17.00;64.60;;;;;;5060945;28;20043;-62
2021/05/24 01:40:47;;;;;;;6.57;5.05;;;17.00;64.70;;;;;;5045365;28;20029;-63
2021/05/24 01:43:12;;;;;;;7.85;4.80;;;16.90;64.70;;;;;;5042675;28;20111;-62
2021/05/24 01:45:39;;;;;;;8.32;5.03;;;17.00;64.90;;;;;;5062909;28;20365;-62
2021/05/24 01:48:04;;;;;;;8.05;4.45;;;16.90;65.00;;;;;;5062926;28;20111;-63
2021/05/24 01:50:30;;;;;;;6.63;4.85;;;16.90;65.10;;;;;;5041886;28;20123;-63
2021/05/24 01:52:55;;;;;;;6.03;4.43;;;16.90;65.10;;;;;;5061027;28;20411;-64
2021/05/24 01:55:21;;;;;;;6.75;4.75;;;16.80;65.10;;;;;;5028158;28;20042;-62
2021/05/24 01:57:47;;;;;;;5.32;4.60;;;16.70;65.20;;;;;;5045608;28;20039;-63
2021/05/24 02:00:17;;;;;;;7.05;4.63;;;16.80;65.40;;;;;;5061164;28;20094;-63
2021/05/24 02:02:43;;;;;;;5.25;4.05;;;16.70;65.40;;;;;;5063211;28;20100;-63
2021/05/24 02:05:10;;;;;;;7.93;4.95;;;16.70;65.60;;;;;;5045615;28;20050;-61
2021/05/24 02:07:36;;;;;;;6.78;4.10;;;16.70;65.60;;;;;;5043196;28;20072;-64
2021/05/24 02:10:03;;;;;;;6.07;4.47;;;16.70;65.80;;;;;;5043635;28;20063;-62
2021/05/24 02:12:28;;;;;;;6.20;4.03;;;16.60;65.80;;;;;;5062558;28;20479;-63
2021/05/24 02:14:54;;;;;;;8.02;4.47;;;16.60;65.90;;;;;;5063603;28;20029;-62
2021/05/24 02:17:19;;;;;;;5.25;3.85;;;16.50;66.00;;;;;;5062547;28;20671;-63
2021/05/24 02:19:47;;;;;;;5.90;3.90;;;16.60;66.10;;;;;;5045199;28;20055;-64
2021/05/24 02:22:13;;;;;;;5.55;3.72;;;16.50;66.10;;;;;;5065362;28;20041;-62
2021/05/24 02:24:39;;;;;;;5.72;3.90;;;16.50;66.20;;;;;;5029748;28;20021;-61
2021/05/24 02:27:05;;;;;;;6.38;3.83;;;16.50;66.30;;;;;;5066053;28;20089;-63
2021/05/24 02:29:30;;;;;;;4.90;3.50;;;16.40;66.30;;;;;;5043580;28;20058;-64
2021/05/24 02:31:56;;;;;;;4.85;3.45;;;16.40;66.30;;;;;;5064656;28;20029;-63
2021/05/24 02:34:21;;;;;;;5.40;3.50;;;16.40;66.40;;;;;;5048142;28;20028;-62
2021/05/24 02:36:47;;;;;;;8.25;3.75;;;16.30;66.50;;;;;;5066215;28;20025;-64
2021/05/24 02:39:13;;;;;;;6.22;3.33;;;16.30;66.60;;;;;;5063552;28;20430;-63
2021/05/24 02:41:38;;;;;;;5.38;3.30;;;16.30;66.70;;;;;;5046643;28;20099;-63
2021/05/24 02:44:05;;;;;;;5.43;3.55;;;16.30;66.80;;;;;;5067093;28;20133;-62
2021/05/24 02:46:31;;;;;;;6.18;3.65;;;16.30;66.90;;;;;;5047355;28;20032;-62
2021/05/24 02:48:56;;;;;;;4.82;3.22;;;16.20;66.90;;;;;;5048811;28;20407;-63
2021/05/24 02:51:22;;;;;;;5.55;3.20;;;16.20;67.10;;;;;;5061183;28;20061;-61
2021/05/24 02:53:47;;;;;;;4.65;3.25;;;16.10;67.20;;;;;;5040782;28;20491;-60
2021/05/24 02:56:13;;;;;;;4.40;3.20;;;16.10;67.20;;;;;;5064084;28;20021;-60
2021/05/24 02:58:38;;;;;;;3.92;2.97;;;16.10;67.30;;;;;;5065339;28;20547;-60
2021/05/24 03:01:04;;;;;;;4.07;2.83;;;16.10;67.40;;;;;;5064629;28;20036;-58
2021/05/24 03:03:31;;;;;;;4.75;3.25;;;16.10;67.50;;;;;;5048648;28;20020;-59
2021/05/24 03:05:57;;;;;;;5.78;2.85;;;16.00;67.50;;;;;;5064486;28;20021;-60
2021/05/24 03:08:22;;;;;;;4.80;3.20;;;16.00;67.50;;;;;;5046329;28;20570;-59
2021/05/24 03:10:48;;;;;;;4.32;3.13;;;16.00;67.70;;;;;;5066070;28;20031;-59
2021/05/24 03:13:14;;;;;;;4.95;3.28;;;15.90;67.70;;;;;;5046900;28;20120;-60
2021/05/24 03:15:40;;;;;;;3.78;2.83;;;15.90;67.90;;;;;;5046179;28;20116;-61
2021/05/24 03:18:05;;;;;;;3.75;2.50;;;15.90;67.90;;;;;;5066530;28;20027;-59
2021/05/24 03:20:31;;;;;;;5.15;2.80;;;15.90;67.90;;;;;;5063733;28;20016;-60
2021/05/24 03:22:57;;;;;;;4.05;2.83;;;15.90;68.10;;;;;;5065279;28;20047;-60
2021/05/24 03:25:22;;;;;;;5.60;3.03;;;15.90;68.10;;;;;;5063756;28;20021;-61
2021/05/24 03:27:48;;;;;;;5.50;2.80;;;15.80;68.20;;;;;;5064884;28;20036;-60
2021/05/24 03:30:14;;;;;;;3.75;2.45;;;15.80;68.50;;;;;;5063445;28;20036;-61
2021/05/24 03:32:39;;;;;;;4.53;2.70;;;15.80;68.30;;;;;;5047261;28;20062;-62
2021/05/24 03:35:05;;;;;;;4.32;2.47;;;15.70;68.40;;;;;;5046444;28;20060;-59
2021/05/24 03:37:31;;;;;;;2.80;2.20;;;15.70;68.50;;;;;;5046248;28;20111;-59
2021/05/24 03:39:56;;;;;;;4.53;2.40;;;15.70;68.60;;;;;;5063487;28;20384;-60
2021/05/24 03:42:22;;;;;;;3.65;2.40;;;15.70;68.60;;;;;;5063866;28;20539;-59
2021/05/24 03:44:47;;;;;;;4.97;2.53;;;15.60;68.70;;;;;;5064237;28;20048;-59
2021/05/24 03:47:13;;;;;;;3.88;2.40;;;15.70;68.80;;;;;;5046456;28;20112;-59
2021/05/24 03:49:39;;;;;;;4.32;2.55;;;15.60;68.80;;;;;;5046898;28;20029;-59
2021/05/24 03:52:05;;;;;;;4.68;2.60;;;15.60;68.80;;;;;;5062570;28;20016;-59
2021/05/24 03:54:30;;;;;;;5.72;3.00;;;15.60;68.90;;;;;;5062340;28;20143;-60
2021/05/24 03:56:56;;;;;;;4.25;2.60;;;15.60;68.90;;;;;;5045718;28;20045;-60
2021/05/24 03:59:21;;;;;;;5.40;2.30;;;15.60;69.00;;;;;;5064080;28;20063;-60
2021/05/24 04:01:49;;;;;;;2.75;2.25;;;15.50;68.90;;;;;;5046547;28;20020;-59
2021/05/24 04:04:15;;;;;;;4.18;2.35;;;15.50;69.00;;;;;;5063600;28;20036;-59
2021/05/24 04:06:42;;;;;;;48.10;8.02;;;15.50;69.10;;;;;;5063563;28;20439;-59
2021/05/24 04:09:08;;;;;;;24.45;5.70;;;15.50;69.10;;;;;;5061637;28;20884;-59
2021/05/24 04:11:33;;;;;;;67.10;9.27;;;15.50;69.20;;;;;;5063339;28;20029;-60
2021/05/24 04:13:59;;;;;;;38.85;7.70;;;15.50;69.20;;;;;;5063954;28;20024;-59
2021/05/24 04:16:24;;;;;;;41.88;6.63;;;15.40;69.20;;;;;;5045767;28;20318;-57
2021/05/24 04:18:51;;;;;;;55.47;6.47;;;15.50;69.40;;;;;;5063846;28;20016;-58
2021/05/24 04:21:16;;;;;;;103.00;11.52;;;15.40;69.40;;;;;;5064097;28;20052;-59
2021/05/24 04:23:43;;;;;;;60.80;7.47;;;15.40;69.40;;;;;;5028333;28;20064;-61
2021/05/24 04:26:08;;;;;;;93.60;9.95;;;15.40;69.50;;;;;;5063940;28;20411;-59
2021/05/24 04:28:34;;;;;;;133.70;11.32;;;15.40;69.50;;;;;;5064275;28;20041;-59
2021/05/24 04:31:00;;;;;;;173.07;15.50;;;15.40;69.60;;;;;;5045580;28;20436;-59
2021/05/24 04:33:25;;;;;;;132.52;10.20;;;15.40;69.80;;;;;;5045892;28;20059;-60
2021/05/24 04:35:51;;;;;;;227.68;17.38;;;15.40;70.00;;;;;;5046534;28;20035;-59
2021/05/24 04:38:17;;;;;;;231.90;16.15;;;15.30;70.20;;;;;;5044015;28;20017;-61
2021/05/24 04:40:42;;;;;;;283.52;22.75;;;15.30;70.40;;;;;;5064756;28;20021;-63
2021/05/24 04:43:08;;;;;;;327.10;24.92;;;15.30;70.60;;;;;;5062871;28;20427;-62
2021/05/24 04:45:33;;;;;;;217.50;17.25;;;15.40;70.60;;;;;;5045459;28;20503;-62
2021/05/24 04:47:59;;;;;;;220.02;18.65;;;15.30;70.50;;;;;;5063365;28;20037;-61
2021/05/24 04:50:24;;;;;;;205.35;15.88;;;15.30;70.60;;;;;;5063441;28;20048;-62
2021/05/24 04:52:50;;;;;;;197.73;14.65;;;15.30;70.40;;;;;;5042899;28;20048;-61
2021/05/24 04:55:16;;;;;;;161.82;15.70;;;15.30;70.40;;;;;;5044726;28;20052;-61
2021/05/24 04:57:42;;;;;;;166.98;13.50;;;15.30;70.40;;;;;;5063168;28;20509;-61
2021/05/24 05:00:09;;;;;;;159.15;13.20;;;15.30;70.50;;;;;;5063264;28;20033;-61
2021/05/24 05:02:35;;;;;;;161.00;14.50;;;15.30;70.50;;;;;;5028484;28;20024;-63
2021/05/24 05:05:01;;;;;;;116.32;12.20;;;15.30;70.40;;;;;;5046300;28;20024;-63
2021/05/24 05:07:27;;;;;;;126.47;12.05;;;15.30;70.50;;;;;;5062987;28;20051;-63
2021/05/24 05:09:54;;;;;;;98.65;11.02;;;15.40;70.70;;;;;;5063664;28;20212;-63
2021/05/24 05:12:19;;;;;;;121.53;11.85;;;15.30;70.70;;;;;;5045790;28;20041;-62
2021/05/24 05:14:45;;;;;;;112.22;10.40;;;15.30;70.80;;;;;;5062871;28;20024;-64
2021/05/24 05:17:10;;;;;;;112.15;11.90;;;15.30;70.60;;;;;;5063188;28;20024;-62
2021/05/24 05:19:36;;;;;;;98.30;12.48;;;15.30;70.70;;;;;;5064492;28;20028;-61
2021/05/24 05:22:01;;;;;;;111.45;12.18;;;15.30;70.90;;;;;;5060791;28;20491;-62
2021/05/24 05:24:27;;;;;;;99.45;12.40;;;15.30;70.90;;;;;;5045436;28;20025;-63
2021/05/24 05:26:52;;;;;;;139.30;12.13;;;15.30;70.90;;;;;;5043667;28;20036;-62
2021/05/24 05:29:18;;;;;;;87.78;11.25;;;15.30;70.80;;;;;;5064275;28;20082;-59
2021/05/24 05:31:43;;;;;;;85.25;11.18;;;15.30;70.90;;;;;;5045142;28;20161;-61
2021/05/24 05:34:09;;;;;;;78.65;10.48;;;15.30;70.80;;;;;;5063701;28;20032;-62
2021/05/24 05:36:36;;;;;;;88.97;11.40;;;15.30;70.80;;;;;;5063046;28;20025;-62
2021/05/24 05:39:03;;;;;;;86.78;11.68;;;15.30;70.90;;;;;;5044753;28;20031;-61
2021/05/24 05:41:28;;;;;;;68.70;8.52;;;15.30;70.80;;;;;;5061807;28;20022;-67
2021/05/24 05:43:54;;;;;;;77.55;8.80;;;15.30;70.90;;;;;;5061453;28;20032;-63
2021/05/24 05:46:19;;;;;;;60.80;8.35;;;15.30;70.90;;;;;;5062253;28;20036;-63
2021/05/24 05:48:45;;;;;;;66.88;8.63;;;15.30;71.10;;;;;;5063310;28;20589;-63
2021/05/24 05:51:10;;;;;;;86.60;9.43;;;15.30;71.30;;;;;;5062229;28;20031;-63
2021/05/24 05:53:36;;;;;;;71.65;8.40;;;15.30;71.00;;;;;;5043731;28;20155;-61
2021/05/24 05:56:02;;;;;;;67.53;8.68;;;15.30;70.90;;;;;;5030654;28;20518;-62
2021/05/24 05:58:28;;;;;;;61.80;8.15;;;15.30;70.80;;;;;;5047281;28;20033;-62
2021/05/24 06:00:53;;;;;;;66.18;7.97;;;15.30;70.80;;;;;;5065788;28;20546;-62
2021/05/24 06:03:19;;;;;;;74.53;8.30;;;15.30;70.90;;;;;;5049301;28;20024;-63
2021/05/24 06:05:44;;;;;;;59.67;8.55;;;15.30;70.90;;;;;;5063277;28;20032;-64
2021/05/24 06:08:10;;;;;;;79.88;7.93;;;15.30;70.90;;;;;;5047785;28;20032;-62
2021/05/24 06:10:35;;;;;;;65.22;7.50;;;15.30;70.90;;;;;;5068399;28;20547;-62
2021/05/24 06:13:01;;;;;;;56.97;7.50;;;15.30;70.90;;;;;;5065767;28;20099;-62
2021/05/24 06:15:26;;;;;;;55.70;7.70;;;15.30;70.90;;;;;;5047472;28;20087;-62
2021/05/24 06:17:52;;;;;;;63.97;8.02;;;15.30;70.90;;;;;;5066095;28;20085;-63
2021/05/24 06:20:18;;;;;;;61.28;7.50;;;15.30;70.90;;;;;;5050058;28;20024;-62
2021/05/24 06:22:43;;;;;;;50.20;6.47;;;15.30;70.90;;;;;;5047463;28;20045;-62
2021/05/24 06:25:09;;;;;;;57.80;7.70;;;15.30;70.90;;;;;;5046972;28;20426;-62
2021/05/24 06:27:35;;;;;;;55.47;6.20;;;15.30;70.90;;;;;;5048544;28;20068;-63
2021/05/24 06:30:01;;;;;;;53.60;6.68;;;15.30;70.90;;;;;;5066183;28;20131;-62
2021/05/24 06:32:26;;;;;;;38.63;6.35;;;15.30;71.40;;;;;;5066411;28;20484;-63
2021/05/24 06:34:52;;;;;;;46.03;6.03;;;15.30;70.70;;;;;;5067390;28;20024;-62
2021/05/24 06:37:17;;;;;;;48.85;5.47;;;15.40;70.70;;;;;;5064190;28;20124;-63
2021/05/24 06:39:43;;;;;;;39.45;6.35;;;15.30;70.60;;;;;;5065726;28;20036;-62
2021/05/24 06:42:08;;;;;;;37.15;5.40;;;15.40;70.70;;;;;;5046326;28;20300;-62
2021/05/24 06:44:34;;;;;;;39.72;6.43;;;15.40;70.70;;;;;;5047651;28;20039;-62
2021/05/24 06:46:59;;;;;;;45.60;5.53;;;15.40;70.70;;;;;;5064833;28;20115;-63
2021/05/24 06:49:25;;;;;;;26.35;4.88;;;15.40;70.70;;;;;;5066549;28;20040;-62
2021/05/24 06:51:51;;;;;;;49.55;6.22;;;15.40;70.70;;;;;;5064669;28;20025;-63
2021/05/24 06:54:16;;;;;;;32.53;5.22;;;15.40;70.50;;;;;;5063452;28;20055;-61
2021/05/24 06:56:42;;;;;;;32.63;5.22;;;15.40;70.50;;;;;;5030318;28;20039;-61
2021/05/24 06:59:07;;;;;;;36.95;5.78;;;15.40;70.50;;;;;;5066049;28;20028;-62
2021/05/24 07:01:33;;;;;;;23.00;4.50;;;15.40;70.40;;;;;;5065645;28;20032;-62
2021/05/24 07:03:58;;;;;;;22.98;4.55;;;15.40;70.50;;;;;;5067129;28;20025;-61
2021/05/24 07:06:24;;;;;;;27.83;4.78;;;15.40;70.80;;;;;;5064086;28;20475;-63
2021/05/24 07:08:50;;;;;;;20.73;4.78;;;15.40;71.30;;;;;;5064226;28;20156;-62
2021/05/24 07:11:15;;;;;;;18.98;4.03;;;15.40;71.60;;;;;;5047515;28;20388;-62
2021/05/24 07:13:41;;;;;;;16.85;4.05;;;15.30;71.80;;;;;;5066056;28;20090;-62
2021/05/24 07:16:06;;;;;;;30.63;4.22;;;15.30;72.10;;;;;;5064281;28;20090;-63
2021/05/24 07:18:32;;;;;;;13.35;3.55;;;15.20;72.30;;;;;;5065758;28;20045;-62
2021/05/24 07:20:57;;;;;;;17.42;3.55;;;15.20;72.60;;;;;;5042832;28;20044;-61
2021/05/24 07:23:23;;;;;;;14.73;3.28;;;15.20;72.70;;;;;;5063187;28;20035;-62
2021/05/24 07:25:48;;;;;;;12.93;2.80;;;15.20;73.00;;;;;;5046791;28;20029;-63
2021/05/24 07:28:14;;;;;;;19.05;3.38;;;15.10;73.10;;;;;;5064717;28;20040;-61
2021/05/24 07:30:39;;;;;;;12.55;2.58;;;15.10;73.20;;;;;;5044841;28;20043;-62
2021/05/24 07:33:05;;;;;;;14.63;2.83;;;15.10;73.20;;;;;;5062004;28;20070;-62
2021/05/24 07:35:30;;;;;;;13.23;3.17;;;15.10;73.30;;;;;;5045285;28;20052;-62
2021/05/24 07:37:56;;;;;;;12.65;3.28;;;15.10;73.40;;;;;;5063823;28;20472;-63
2021/05/24 07:40:21;;;;;;;10.52;2.92;;;15.10;73.40;;;;;;5042136;28;20454;-63
2021/05/24 07:42:47;;;;;;;8.10;2.28;;;15.10;73.80;;;;;;5064345;28;20020;-62
2021/05/24 07:45:13;;;;;;;7.50;2.45;;;15.10;74.00;;;;;;5061218;28;20107;-63
2021/05/24 07:47:38;;;;;;;11.38;2.17;;;15.10;74.10;;;;;;5040627;28;20032;-62
2021/05/24 07:50:04;;;;;;;12.00;2.70;;;15.00;74.10;;;;;;5062992;28;20464;-62
2021/05/24 07:52:30;;;;;;;9.55;2.70;;;15.00;74.20;;;;;;5046379;28;20211;-62
2021/05/24 07:54:57;;;;;;;7.07;2.70;;;15.00;74.30;;;;;;5045515;28;20024;-63
2021/05/24 07:57:23;;;;;;;8.75;2.42;;;15.00;74.30;;;;;;5047874;28;20032;-62
2021/05/24 07:59:49;;;;;;;8.88;2.83;;;15.00;74.60;;;;;;5062871;28;20288;-63
2021/05/24 08:02:14;;;;;;;7.47;2.22;;;15.00;74.60;;;;;;5061192;28;20436;-63
2021/05/24 08:04:40;;;;;;;5.70;2.20;;;15.00;74.70;;;;;;5045657;28;20082;-62
2021/05/24 08:07:06;;;;;;;5.85;2.20;;;14.90;74.70;;;;;;5062022;28;20078;-62
2021/05/24 08:09:31;;;;;;;7.78;2.40;;;15.00;74.80;;;;;;5042321;28;20624;-61
2021/05/24 08:11:57;;;;;;;6.57;2.20;;;15.00;74.90;;;;;;5064196;28;20025;-63
2021/05/24 08:14:22;;;;;;;8.88;2.33;;;15.00;74.90;;;;;;5045702;28;20492;-61
2021/05/24 08:16:48;;;;;;;8.80;2.70;;;15.00;74.70;;;;;;5062573;28;20460;-61
2021/05/24 08:19:14;;;;;;;10.40;2.80;;;15.00;74.70;;;;;;5043847;28;20040;-62
2021/05/24 08:21:49;;;;;;;10.30;2.92;;;15.10;75.20;;;;;;5041236;28;20060;-62
2021/05/24 08:24:15;;;;;;;15.27;3.10;;;15.10;75.00;;;;;;5014451;28;20055;-62
2021/05/24 08:26:41;;;;;;;13.27;2.80;;;15.10;74.80;;;;;;5045349;28;20553;-62
2021/05/24 08:29:06;;;;;;;28.00;3.22;;;15.10;74.80;;;;;;5041067;28;20028;-61
2021/05/24 08:31:32;;;;;;;10.88;3.63;;;15.20;74.70;;;;;;5048527;28;20116;-61
2021/05/24 08:33:58;;;;;;;20.40;3.35;;;15.20;74.90;;;;;;5027127;28;20067;-62
2021/05/24 08:36:24;;;;;;;37.70;4.13;;;15.20;75.40;;;;;;5033797;28;20073;-62
2021/05/24 08:38:49;;;;;;;18.17;4.05;;;15.20;75.60;;;;;;5040761;28;20024;-62
2021/05/24 08:41:15;;;;;;;46.42;4.15;;;15.20;75.90;;;;;;5047301;28;20897;-63
2021/05/24 08:43:41;;;;;;;31.08;3.88;;;15.20;76.10;;;;;;5026227;28;20052;-63
2021/05/24 08:46:07;;;;;;;55.42;5.32;;;15.30;76.00;;;;;;5036017;28;20032;-62
2021/05/24 08:48:32;;;;;;;44.80;5.72;;;15.30;75.80;;;;;;5008556;28;20880;-62
2021/05/24 08:50:58;;;;;;;45.38;6.38;;;15.30;75.70;;;;;;5042193;28;20158;-61
2021/05/24 08:53:24;;;;;;;54.92;6.22;;;15.40;75.80;;;;;;5032443;28;20057;-62
2021/05/24 08:55:49;;;;;;;57.05;6.90;;;15.40;76.10;;;;;;5034792;28;20673;-62
2021/05/24 08:58:15;;;;;;;57.45;6.90;;;15.50;76.00;;;;;;5042954;28;20044;-63
2021/05/24 09:00:41;;;;;;;60.78;7.40;;;15.50;76.10;;;;;;5034960;28;20084;-61
2021/05/24 09:03:15;;;;;;;78.97;9.13;;;15.50;75.80;;;;;;5032947;28;20039;-61
2021/05/24 09:05:41;;;;;;;93.90;9.18;;;15.60;76.10;;;;;;5028049;28;20032;-63
2021/05/24 09:08:06;;;;;;;64.60;7.93;;;15.60;75.90;;;;;;5034284;28;21517;-62
2021/05/24 09:10:35;;;;;;;92.40;9.57;;;15.70;75.80;;;;;;5029943;28;20041;-63
2021/05/24 09:13:08;;;;;;;74.88;8.98;;;15.70;75.80;;;;;;5046551;28;20024;-63
2021/05/24 09:15:34;;;;;;;94.43;11.10;;;15.60;75.70;;;;;;5031286;28;20147;-62
2021/05/24 09:18:01;;;;;;;75.63;9.10;;;15.80;75.70;;;;;;5030406;28;20033;-64
2021/05/24 09:20:27;;;;;;;77.15;9.25;;;15.80;76.00;;;;;;5034009;28;20105;-63
2021/05/24 09:23:17;;;;;;;96.57;11.05;;;16.30;76.50;;;;;;5060876;28;20396;-61
2021/05/24 09:26:05;;;;;;;85.60;10.13;;;15.90;76.20;;;;;;5033887;28;20020;-62
2021/05/24 09:28:49;;;;;;;124.35;12.63;;;16.00;76.60;;;;;;5059383;28;21398;-61
2021/05/24 09:31:20;;;;;;;105.35;11.23;;;16.00;76.30;;;;;;5056121;28;20116;-61
2021/05/24 09:33:50;;;;;;;116.10;10.68;;;16.10;76.40;;;;;;5062045;28;20044;-62
2021/05/24 09:36:16;;;;;;;109.90;13.20;;;16.10;76.70;;;;;;5060489;28;20356;-62
2021/05/24 09:38:42;;;;;;;223.30;24.88;;;16.20;76.40;;;;;;5042735;28;20028;-62
2021/05/24 09:41:08;;;;;;;249.85;21.88;;;16.20;76.60;;;;;;5043692;28;20021;-61
2021/05/24 09:44:03;;;;;;;165.70;16.63;;;16.20;76.60;;;;;;5059399;28;20032;-63
2021/05/24 09:46:29;;;;;;;113.90;13.98;;;16.20;76.50;;;;;;5035738;28;20044;-61
2021/05/24 09:49:01;;;;;;;136.55;16.10;;;16.30;76.80;;;;;;5044378;28;20539;-61
2021/05/24 09:51:31;;;;;;;153.75;16.30;;;16.30;76.60;;;;;;5059368;28;20116;-61
2021/05/24 09:54:00;;;;;;;135.88;15.32;;;16.30;76.70;;;;;;5042337;28;20238;-61
2021/05/24 09:56:27;;;;;;;127.25;13.40;;;16.40;76.60;;;;;;5042444;28;20031;-61
2021/05/24 09:59:08;;;;;;;104.20;12.38;;;16.40;76.50;;;;;;5042287;28;20097;-61
2021/05/24 10:01:40;;;;;;;133.98;12.95;;;16.40;76.50;;;;;;5057620;28;20067;-61
2021/05/24 10:04:06;;;;;;;118.70;14.88;;;16.40;76.50;;;;;;5041020;28;20035;-62
2021/05/24 10:06:33;;;;;;;132.32;14.20;;;16.40;76.50;;;;;;5045591;28;20024;-62
2021/05/24 10:08:58;;;;;;;139.35;15.05;;;16.40;76.60;;;;;;5044444;28;20337;-61
2021/05/24 10:11:24;;;;;;;156.55;17.52;;;16.50;76.70;;;;;;5040712;28;20033;-60
2021/05/24 10:13:50;;;;;;;121.82;13.27;;;16.50;76.60;;;;;;5062108;28;20041;-61
2021/05/24 10:16:16;;;;;;;157.63;16.80;;;16.50;76.80;;;;;;5061885;28;20111;-62
2021/05/24 10:18:41;;;;;;;127.78;14.23;;;16.60;76.70;;;;;;5062773;28;20020;-61
2021/05/24 10:21:07;;;;;;;141.00;15.38;;;16.60;76.80;;;;;;5041260;28;20048;-61
2021/05/24 10:23:33;;;;;;;155.50;15.88;;;16.70;76.90;;;;;;5044215;28;20063;-61
2021/05/24 10:26:00;;;;;;;155.75;18.10;;;16.70;76.60;;;;;;5042334;28;20044;-62
2021/05/24 10:28:29;;;;;;;155.73;18.38;;;16.80;76.40;;;;;;5060304;28;20838;-62
2021/05/24 10:30:55;;;;;;;136.95;16.88;;;16.90;76.40;;;;;;5026818;28;20032;-64
2021/05/24 10:33:23;;;;;;;137.52;15.77;;;16.90;76.50;;;;;;5045028;28;20029;-61
2021/05/24 10:35:48;;;;;;;144.60;15.43;;;16.90;76.40;;;;;;5059700;28;20044;-61
2021/05/24 10:38:20;;;;;;;171.93;18.92;;;17.00;76.30;;;;;;5061144;28;20040;-61
2021/05/24 10:40:46;;;;;;;152.60;17.40;;;17.10;76.10;;;;;;5061649;28;20104;-61
2021/05/24 10:43:15;;;;;;;165.90;17.52;;;17.10;76.00;;;;;;5044156;28;20476;-61
2021/05/24 10:45:40;;;;;;;155.20;17.40;;;17.10;75.60;;;;;;5046969;28;20025;-62
2021/05/24 10:48:06;;;;;;;195.02;20.88;;;17.10;75.70;;;;;;5065357;28;20482;-60
2021/05/24 10:50:32;;;;;;;176.52;17.33;;;17.20;75.60;;;;;;5064904;28;20476;-60
2021/05/24 10:52:59;;;;;;;126.15;14.02;;;17.20;75.30;;;;;;5059704;28;20108;-63
2021/05/24 10:55:25;;;;;;;149.88;16.05;;;17.30;75.20;;;;;;5035769;28;20113;-62
2021/05/24 10:58:01;;;;;;;143.32;16.02;;;17.20;75.10;;;;;;5061680;28;20433;-61
2021/05/24 11:00:26;;;;;;;150.32;16.67;;;17.30;75.20;;;;;;5063283;28;21375;-61
2021/05/24 11:02:53;;;;;;;145.10;14.93;;;17.30;75.00;;;;;;5042640;28;20033;-60
2021/05/24 11:05:29;;;;;;;158.90;15.57;;;17.40;74.80;;;;;;5058840;28;20742;-60
2021/05/24 11:08:06;;;;;;;139.10;15.10;;;17.40;74.80;;;;;;5041505;28;20055;-61
2021/05/24 11:10:33;;;;;;;145.40;15.82;;;17.50;74.80;;;;;;5043032;28;20028;-61
2021/05/24 11:13:11;;;;;;;120.90;15.02;;;17.50;74.60;;;;;;5051489;28;20037;-60
2021/05/24 11:15:37;;;;;;;138.07;15.32;;;17.50;74.20;;;;;;5064115;28;20071;-62
2021/05/24 11:18:06;;;;;;;157.57;15.85;;;17.60;74.10;;;;;;5045614;28;20062;-61
2021/05/24 11:20:47;;;;;;;162.52;14.98;;;17.60;73.90;;;;;;5044886;28;20476;-61
2021/05/24 11:23:47;;;;;;;143.63;15.18;;;17.60;73.90;;;;;;5048422;28;20024;-60
2021/05/24 11:26:29;;;;;;;114.22;12.48;;;17.60;74.10;;;;;;5065265;28;20594;-61
2021/05/24 11:28:58;;;;;;;135.15;15.50;;;17.70;73.70;;;;;;5063310;28;20032;-61
2021/05/24 11:31:40;;;;;;;137.30;14.25;;;17.70;74.70;;;;;;5064283;28;20052;-61
2021/05/24 11:34:07;;;;;;;116.60;12.40;;;17.70;73.80;;;;;;5063177;28;20375;-61
2021/05/24 11:36:35;;;;;;;147.35;14.38;;;17.70;73.60;;;;;;5060716;28;20028;-62
2021/05/24 11:39:13;;;;;;;121.57;14.23;;;17.80;74.10;;;;;;5063615;28;20063;-61
2021/05/24 11:41:57;;;;;;;123.63;12.45;;;17.80;73.90;;;;;;5063673;28;20094;-61
2021/05/24 11:44:25;;;;;;;98.93;11.65;;;17.80;73.70;;;;;;5063131;28;20043;-60
2021/05/24 11:46:55;;;;;;;138.55;13.55;;;17.80;73.70;;;;;;5065314;28;20020;-60
2021/05/24 11:49:30;;;;;;;130.45;13.25;;;17.80;73.70;;;;;;5062296;28;20098;-61
2021/05/24 11:51:55;;;;;;;129.13;12.63;;;17.90;73.80;;;;;;5044047;28;20040;-60
2021/05/24 11:54:21;;;;;;;120.22;11.68;;;17.90;73.80;;;;;;5062454;28;20275;-60
2021/05/24 11:56:51;;;;;;;104.05;12.38;;;17.90;73.60;;;;;;5043332;28;20027;-60
2021/05/24 11:59:18;;;;;;;99.30;14.02;;;17.90;73.40;;;;;;5064111;28;20021;-61
2021/05/24 12:01:45;;;;;;;120.60;14.13;;;17.90;73.50;;;;;;5044598;28;20131;-62
2021/05/24 12:04:12;;;;;;;84.03;11.10;;;17.80;74.30;;;;;;5063720;28;20029;-61
2021/05/24 12:06:51;;;;;;;103.05;11.57;;;17.90;73.90;;;;;;5039254;28;20524;-62
2021/05/24 12:09:41;;;;;;;82.03;10.70;;;17.90;73.60;;;;;;5049058;28;20096;-60
2021/05/24 12:12:35;;;;;;;92.07;11.80;;;17.90;73.60;;;;;;5026466;28;20040;-60
2021/05/24 12:15:05;;;;;;;122.90;12.73;;;17.90;73.60;;;;;;5054487;28;20144;-61
2021/05/24 12:17:32;;;;;;;112.78;12.55;;;18.00;73.40;;;;;;5039728;28;20380;-60
2021/05/24 12:19:59;;;;;;;81.35;12.30;;;18.00;73.10;;;;;;5044949;28;20036;-61
2021/05/24 12:22:27;;;;;;;112.63;12.68;;;18.00;73.00;;;;;;5063923;28;20069;-61
2021/05/24 12:24:54;;;;;;;125.35;12.82;;;18.00;73.00;;;;;;5041822;28;20488;-61
2021/05/24 12:27:21;;;;;;;118.25;12.05;;;18.00;72.80;;;;;;5044263;28;20047;-60
2021/05/24 12:29:53;;;;;;;97.88;10.52;;;18.00;73.20;;;;;;5046473;28;21694;-61
2021/05/24 12:32:33;;;;;;;92.50;9.77;;;18.10;72.50;;;;;;5060907;28;20123;-60